sensor_id;sensor_type;location;lat;lon;timestamp;pressure;altitude;pressure_sealevel;temperature;humidity
5522;BME280;2783;48.730;8.006;2023-11-19T00:01:00;100097.84;;;11.61;100.00
5522;BME280;2783;48.730;8.006;2023-11-19T00:03:26;100104.00;;;11.63;100.00
5522;BME280;2783;48.730;8.006;2023-11-19T00:05:51;100087.19;;;11.61;100.00
5522;BME280;2783;48.730;8.006;2023-11-19T00:08:17;100106.47;;;11.69;100.00
5522;BME280;2783;48.730;8.006;2023-11-19T00:10:43;100096.66;;;11.71;100.00
5522;BME280;2783;48.730;8.006;2023-11-19T00:13:08;100086.69;;;11.76;100.00
5522;BME280;2783;48.730;8.006;2023-11-19T00:15:35;100082.97;;;11.80;100.00
5522;BME280;2783;48.730;8.006;2023-11-19T00:18:00;100076.63;;;11.84;100.00
5522;BME280;2783;48.730;8.006;2023-11-19T00:20:30;100069.69;;;11.78;100.00
5522;BME280;2783;48.730;8.006;2023-11-19T00:22:55;100065.13;;;11.82;100.00
5522;BME280;2783;48.730;8.006;2023-11-19T00:25:21;100075.69;;;11.85;100.00
5522;BME280;2783;48.730;8.006;2023-11-19T00:27:47;100068.44;;;11.88;100.00
5522;BME280;2783;48.730;8.006;2023-11-19T00:30:12;100071.09;;;11.88;100.00
5522;BME280;2783;48.730;8.006;2023-11-19T00:32:39;100085.97;;;11.96;100.00
5522;BME280;2783;48.730;8.006;2023-11-19T00:35:05;100081.53;;;11.94;100.00
5522;BME280;2783;48.730;8.006;2023-11-19T00:37:31;100077.19;;;11.92;100.00
5522;BME280;2783;48.730;8.006;2023-11-19T00:39:56;100080.69;;;11.94;100.00
5522;BME280;2783;48.730;8.006;2023-11-19T00:42:23;100072.69;;;11.94;100.00
5522;BME280;2783;48.730;8.006;2023-11-19T00:44:50;100070.72;;;11.99;100.00
5522;BME280;2783;48.730;8.006;2023-11-19T00:47:15;100053.91;;;11.97;100.00
5522;BME280;2783;48.730;8.006;2023-11-19T00:49:40;100058.25;;;12.00;100.00
5522;BME280;2783;48.730;8.006;2023-11-19T00:52:06;100048.34;;;12.03;100.00
5522;BME280;2783;48.730;8.006;2023-11-19T00:54:32;100047.38;;;12.06;100.00
5522;BME280;2783;48.730;8.006;2023-11-19T00:56:57;100037.66;;;12.03;100.00
5522;BME280;2783;48.730;8.006;2023-11-19T00:59:23;100031.38;;;12.06;100.00
5522;BME280;2783;48.730;8.006;2023-11-19T01:01:48;100026.88;;;12.06;100.00
5522;BME280;2783;48.730;8.006;2023-11-19T01:04:14;100035.56;;;12.11;100.00
5522;BME280;2783;48.730;8.006;2023-11-19T01:06:40;100041.66;;;12.15;100.00
5522;BME280;2783;48.730;8.006;2023-11-19T01:09:07;100039.75;;;12.18;100.00
5522;BME280;2783;48.730;8.006;2023-11-19T01:11:34;100051.31;;;12.19;100.00
5522;BME280;2783;48.730;8.006;2023-11-19T01:13:59;100039.75;;;12.18;100.00
5522;BME280;2783;48.730;8.006;2023-11-19T01:16:25;100025.59;;;12.16;100.00
5522;BME280;2783;48.730;8.006;2023-11-19T01:18:51;100030.78;;;12.21;100.00
5522;BME280;2783;48.730;8.006;2023-11-19T01:21:17;100022.72;;;12.22;100.00
5522;BME280;2783;48.730;8.006;2023-11-19T01:23:43;100024.56;;;12.20;100.00
5522;BME280;2783;48.730;8.006;2023-11-19T01:26:09;100015.63;;;12.21;100.00
5522;BME280;2783;48.730;8.006;2023-11-19T01:28:38;100017.25;;;12.25;100.00
5522;BME280;2783;48.730;8.006;2023-11-19T01:31:12;100025.38;;;12.22;100.00
5522;BME280;2783;48.730;8.006;2023-11-19T01:33:38;100034.94;;;12.28;100.00
5522;BME280;2783;48.730;8.006;2023-11-19T01:36:04;100036.69;;;12.29;100.00
5522;BME280;2783;48.730;8.006;2023-11-19T01:38:30;100040.19;;;12.29;100.00
5522;BME280;2783;48.730;8.006;2023-11-19T01:40:56;100040.13;;;12.31;100.00
5522;BME280;2783;48.730;8.006;2023-11-19T01:43:35;100033.81;;;12.33;100.00
5522;BME280;2783;48.730;8.006;2023-11-19T01:46:02;100039.97;;;12.35;100.00
5522;BME280;2783;48.730;8.006;2023-11-19T01:48:34;100037.38;;;12.34;100.00
5522;BME280;2783;48.730;8.006;2023-11-19T01:51:02;100038.22;;;12.34;100.00
5522;BME280;2783;48.730;8.006;2023-11-19T01:53:29;100029.19;;;12.38;100.00
5522;BME280;2783;48.730;8.006;2023-11-19T01:55:56;100030.78;;;12.42;100.00
5522;BME280;2783;48.730;8.006;2023-11-19T01:58:22;100029.19;;;12.38;100.00
5522;BME280;2783;48.730;8.006;2023-11-19T02:00:48;100017.69;;;12.36;100.00
5522;BME280;2783;48.730;8.006;2023-11-19T02:03:14;100020.16;;;12.41;100.00
5522;BME280;2783;48.730;8.006;2023-11-19T02:05:40;100018.56;;;12.37;100.00
5522;BME280;2783;48.730;8.006;2023-11-19T02:08:06;100029.88;;;12.43;100.00
5522;BME280;2783;48.730;8.006;2023-11-19T02:10:31;100024.53;;;12.43;100.00
5522;BME280;2783;48.730;8.006;2023-11-19T02:12:58;100034.13;;;12.47;100.00
5522;BME280;2783;48.730;8.006;2023-11-19T02:15:24;100025.44;;;12.42;100.00
5522;BME280;2783;48.730;8.006;2023-11-19T02:17:50;100045.50;;;12.52;100.00
5522;BME280;2783;48.730;8.006;2023-11-19T02:20:16;100028.50;;;12.55;100.00
5522;BME280;2783;48.730;8.006;2023-11-19T02:22:41;100012.72;;;12.49;100.00
5522;BME280;2783;48.730;8.006;2023-11-19T02:25:08;100008.94;;;12.54;100.00
5522;BME280;2783;48.730;8.006;2023-11-19T02:27:48;100019.50;;;12.57;100.00
5522;BME280;2783;48.730;8.006;2023-11-19T02:30:16;100021.19;;;12.60;100.00
5522;BME280;2783;48.730;8.006;2023-11-19T02:32:42;100026.41;;;12.63;100.00
5522;BME280;2783;48.730;8.006;2023-11-19T02:35:08;100030.84;;;12.62;100.00
5522;BME280;2783;48.730;8.006;2023-11-19T02:37:38;100029.94;;;12.63;100.00
5522;BME280;2783;48.730;8.006;2023-11-19T02:40:04;100023.78;;;12.61;100.00
5522;BME280;2783;48.730;8.006;2023-11-19T02:42:30;100021.88;;;12.65;100.00
5522;BME280;2783;48.730;8.006;2023-11-19T02:44:56;100012.03;;;12.65;100.00
5522;BME280;2783;48.730;8.006;2023-11-19T02:47:22;100013.94;;;12.63;100.00
5522;BME280;2783;48.730;8.006;2023-11-19T02:49:49;100011.94;;;12.68;100.00
5522;BME280;2783;48.730;8.006;2023-11-19T02:52:15;100013.00;;;12.64;100.00
5522;BME280;2783;48.730;8.006;2023-11-19T02:54:41;100012.91;;;12.66;100.00
5522;BME280;2783;48.730;8.006;2023-11-19T02:57:07;100012.78;;;12.69;100.00
5522;BME280;2783;48.730;8.006;2023-11-19T02:59:38;100017.28;;;12.68;100.00
5522;BME280;2783;48.730;8.006;2023-11-19T03:02:07;100014.63;;;12.68;100.00
5522;BME280;2783;48.730;8.006;2023-11-19T03:04:36;100003.94;;;12.68;100.00
5522;BME280;2783;48.730;8.006;2023-11-19T03:07:02;99990.69;;;12.65;100.00
5522;BME280;2783;48.730;8.006;2023-11-19T03:09:27;99990.69;;;12.65;100.00
5522;BME280;2783;48.730;8.006;2023-11-19T03:11:54;99998.59;;;12.68;100.00
5522;BME280;2783;48.730;8.006;2023-11-19T03:14:19;100004.72;;;12.70;100.00
5522;BME280;2783;48.730;8.006;2023-11-19T03:16:45;99994.91;;;12.71;100.00
5522;BME280;2783;48.730;8.006;2023-11-19T03:19:11;99995.25;;;12.63;100.00
5522;BME280;2783;48.730;8.006;2023-11-19T03:21:37;99998.63;;;12.67;100.00
5522;BME280;2783;48.730;8.006;2023-11-19T03:24:02;99996.84;;;12.67;100.00
5522;BME280;2783;48.730;8.006;2023-11-19T03:26:28;99987.13;;;12.66;100.00
5522;BME280;2783;48.730;8.006;2023-11-19T03:28:54;99983.28;;;12.73;100.00
5522;BME280;2783;48.730;8.006;2023-11-19T03:31:22;99990.31;;;12.74;100.00
5522;BME280;2783;48.730;8.006;2023-11-19T03:33:47;99996.53;;;12.75;100.00
5522;BME280;2783;48.730;8.006;2023-11-19T03:36:13;99997.53;;;12.72;100.00
5522;BME280;2783;48.730;8.006;2023-11-19T03:38:38;99985.00;;;12.74;100.00
5522;BME280;2783;48.730;8.006;2023-11-19T03:41:22;99984.84;;;12.77;100.00
5522;BME280;2783;48.730;8.006;2023-11-19T03:43:47;99988.47;;;12.76;100.00
5522;BME280;2783;48.730;8.006;2023-11-19T03:46:19;99999.00;;;12.79;100.00
5522;BME280;2783;48.730;8.006;2023-11-19T03:48:49;100009.50;;;12.84;100.00
5522;BME280;2783;48.730;8.006;2023-11-19T03:51:15;100011.28;;;12.83;100.00
5522;BME280;2783;48.730;8.006;2023-11-19T03:53:44;100009.41;;;12.85;100.00
5522;BME280;2783;48.730;8.006;2023-11-19T03:56:11;99991.91;;;12.78;100.00
5522;BME280;2783;48.730;8.006;2023-11-19T03:58:37;100011.19;;;12.86;100.00
5522;BME280;2783;48.730;8.006;2023-11-19T04:01:04;99998.59;;;12.88;100.00
5522;BME280;2783;48.730;8.006;2023-11-19T04:03:29;100005.72;;;12.89;100.00
5522;BME280;2783;48.730;8.006;2023-11-19T04:05:55;100002.22;;;12.87;100.00
5522;BME280;2783;48.730;8.006;2023-11-19T04:08:21;100009.06;;;12.94;100.00
5522;BME280;2783;48.730;8.006;2023-11-19T04:10:47;100017.06;;;12.94;100.00
5522;BME280;2783;48.730;8.006;2023-11-19T04:13:12;100008.09;;;12.95;100.00
5522;BME280;2783;48.730;8.006;2023-11-19T04:15:38;100011.53;;;12.99;100.00
5522;BME280;2783;48.730;8.006;2023-11-19T04:18:03;100015.06;;;12.99;100.00
5522;BME280;2783;48.730;8.006;2023-11-19T04:20:29;100011.44;;;13.00;100.00
5522;BME280;2783;48.730;8.006;2023-11-19T04:22:54;99998.00;;;13.03;100.00
5522;BME280;2783;48.730;8.006;2023-11-19T04:25:19;99999.75;;;13.04;100.00
5522;BME280;2783;48.730;8.006;2023-11-19T04:27:45;99996.00;;;13.08;100.00
5522;BME280;2783;48.730;8.006;2023-11-19T04:30:11;100004.06;;;13.07;100.00
5522;BME280;2783;48.730;8.006;2023-11-19T04:32:37;100004.81;;;13.10;100.00
5522;BME280;2783;48.730;8.006;2023-11-19T04:35:02;100003.81;;;13.13;100.00
5522;BME280;2783;48.730;8.006;2023-11-19T04:37:28;99996.34;;;13.21;100.00
5522;BME280;2783;48.730;8.006;2023-11-19T04:39:54;100005.28;;;13.20;100.00
5522;BME280;2783;48.730;8.006;2023-11-19T04:42:22;99997.34;;;13.18;100.00
5522;BME280;2783;48.730;8.006;2023-11-19T04:44:47;100002.53;;;13.21;100.00
5522;BME280;2783;48.730;8.006;2023-11-19T04:47:12;99990.00;;;13.23;100.00
5522;BME280;2783;48.730;8.006;2023-11-19T04:49:42;99998.81;;;13.26;100.00
5522;BME280;2783;48.730;8.006;2023-11-19T04:52:11;99993.47;;;13.26;100.00
5522;BME280;2783;48.730;8.006;2023-11-19T04:54:46;100000.34;;;13.31;100.00
5522;BME280;2783;48.730;8.006;2023-11-19T04:57:13;99992.31;;;13.31;100.00
5522;BME280;2783;48.730;8.006;2023-11-19T04:59:38;99992.38;;;13.30;100.00
5522;BME280;2783;48.730;8.006;2023-11-19T05:02:04;99986.00;;;13.34;100.00
5522;BME280;2783;48.730;8.006;2023-11-19T05:04:31;99990.22;;;13.39;100.00
5522;BME280;2783;48.730;8.006;2023-11-19T05:06:56;99989.47;;;13.36;100.00
5522;BME280;2783;48.730;8.006;2023-11-19T05:09:21;99986.44;;;13.43;100.00
5522;BME280;2783;48.730;8.006;2023-11-19T05:11:47;99996.16;;;13.46;100.00
5522;BME280;2783;48.730;8.006;2023-11-19T05:14:13;99987.97;;;13.49;100.00
5522;BME280;2783;48.730;8.006;2023-11-19T05:16:42;99991.56;;;13.48;100.00
5522;BME280;2783;48.730;8.006;2023-11-19T05:19:08;99992.25;;;13.53;100.00
5522;BME280;2783;48.730;8.006;2023-11-19T05:21:34;99994.13;;;13.51;100.00
5522;BME280;2783;48.730;8.006;2023-11-19T05:24:01;99994.00;;;13.54;100.00
5522;BME280;2783;48.730;8.006;2023-11-19T05:26:29;99981.69;;;13.50;100.00
5522;BME280;2783;48.730;8.006;2023-11-19T05:28:55;99990.09;;;13.61;100.00
5522;BME280;2783;48.730;8.006;2023-11-19T05:31:20;99985.47;;;13.64;100.00
5522;BME280;2783;48.730;8.006;2023-11-19T05:33:45;99981.81;;;13.67;100.00
5522;BME280;2783;48.730;8.006;2023-11-19T05:36:11;99968.66;;;13.62;100.00
5522;BME280;2783;48.730;8.006;2023-11-19T05:38:38;99975.66;;;13.65;100.00
5522;BME280;2783;48.730;8.006;2023-11-19T05:41:03;99979.22;;;13.65;100.00
5522;BME280;2783;48.730;8.006;2023-11-19T05:43:30;99977.13;;;13.72;100.00
5522;BME280;2783;48.730;8.006;2023-11-19T05:45:55;99979.00;;;13.70;100.00
5522;BME280;2783;48.730;8.006;2023-11-19T05:48:21;99971.84;;;13.70;100.00
5522;BME280;2783;48.730;8.006;2023-11-19T05:50:46;99965.47;;;13.73;100.00
5522;BME280;2783;48.730;8.006;2023-11-19T05:53:14;99959.22;;;13.74;100.00
5522;BME280;2783;48.730;8.006;2023-11-19T05:55:40;99966.28;;;13.75;100.00
5522;BME280;2783;48.730;8.006;2023-11-19T05:58:12;99976.09;;;13.74;100.00
5522;BME280;2783;48.730;8.006;2023-11-19T06:00:38;99975.91;;;13.79;100.00
5522;BME280;2783;48.730;8.006;2023-11-19T06:03:05;99971.47;;;13.78;100.00
5522;BME280;2783;48.730;8.006;2023-11-19T06:05:31;99967.09;;;13.77;100.00
5522;BME280;2783;48.730;8.006;2023-11-19T06:07:56;99969.84;;;13.75;100.00
5522;BME280;2783;48.730;8.006;2023-11-19T06:10:22;99969.91;;;13.74;100.00
5522;BME280;2783;48.730;8.006;2023-11-19T06:12:54;99963.69;;;13.73;100.00
5522;BME280;2783;48.730;8.006;2023-11-19T06:15:21;99964.56;;;13.74;100.00
5522;BME280;2783;48.730;8.006;2023-11-19T06:17:46;99971.63;;;13.75;100.00
5522;BME280;2783;48.730;8.006;2023-11-19T06:20:12;99969.47;;;13.83;100.00
5522;BME280;2783;48.730;8.006;2023-11-19T06:22:39;99970.19;;;13.86;100.00
5522;BME280;2783;48.730;8.006;2023-11-19T06:25:05;99972.00;;;13.86;100.00
5522;BME280;2783;48.730;8.006;2023-11-19T06:27:32;99968.97;;;13.93;100.00
5522;BME280;2783;48.730;8.006;2023-11-19T06:29:57;99969.97;;;13.91;100.00
5522;BME280;2783;48.730;8.006;2023-11-19T06:32:24;99971.44;;;13.98;100.00
5522;BME280;2783;48.730;8.006;2023-11-19T06:34:49;99965.34;;;13.94;100.00
5522;BME280;2783;48.730;8.006;2023-11-19T06:37:14;99960.66;;;13.99;100.00
5522;BME280;2783;48.730;8.006;2023-11-19T06:39:40;99956.03;;;14.03;100.00
5522;BME280;2783;48.730;8.006;2023-11-19T06:42:06;99954.34;;;14.00;100.00
5522;BME280;2783;48.730;8.006;2023-11-19T06:44:32;99941.56;;;14.07;100.00
5522;BME280;2783;48.730;8.006;2023-11-19T06:46:58;99946.91;;;14.07;100.00
5522;BME280;2783;48.730;8.006;2023-11-19T06:49:23;99945.91;;;14.09;100.00
5522;BME280;2783;48.730;8.006;2023-11-19T06:51:49;99947.63;;;14.10;100.00
5522;BME280;2783;48.730;8.006;2023-11-19T06:54:15;99951.81;;;14.16;100.00
5522;BME280;2783;48.730;8.006;2023-11-19T06:56:41;99948.19;;;14.17;100.00
5522;BME280;2783;48.730;8.006;2023-11-19T06:59:07;99950.88;;;14.17;100.00
5522;BME280;2783;48.730;8.006;2023-11-19T07:01:36;99955.00;;;14.24;100.00
5522;BME280;2783;48.730;8.006;2023-11-19T07:04:02;99956.03;;;14.21;100.00
5522;BME280;2783;48.730;8.006;2023-11-19T07:06:33;99972.75;;;14.26;100.00
5522;BME280;2783;48.730;8.006;2023-11-19T07:08:59;99970.09;;;14.26;100.00
5522;BME280;2783;48.730;8.006;2023-11-19T07:11:27;99970.13;;;14.25;100.00
5522;BME280;2783;48.730;8.006;2023-11-19T07:13:53;99977.16;;;14.27;100.00
5522;BME280;2783;48.730;8.006;2023-11-19T07:16:19;99979.91;;;14.26;100.00
5522;BME280;2783;48.730;8.006;2023-11-19T07:18:46;99982.44;;;14.29;100.00
5522;BME280;2783;48.730;8.006;2023-11-19T07:21:15;99988.44;;;14.34;100.00
5522;BME280;2783;48.730;8.006;2023-11-19T07:23:40;99983.00;;;14.35;100.00
5522;BME280;2783;48.730;8.006;2023-11-19T07:26:07;99998.91;;;14.38;100.00
5522;BME280;2783;48.730;8.006;2023-11-19T07:28:36;100008.69;;;14.39;100.00
5522;BME280;2783;48.730;8.006;2023-11-19T07:31:01;99996.03;;;14.43;100.00
5522;BME280;2783;48.730;8.006;2023-11-19T07:33:27;99996.94;;;14.42;100.00
5522;BME280;2783;48.730;8.006;2023-11-19T07:35:52;100001.38;;;14.43;100.00
5522;BME280;2783;48.730;8.006;2023-11-19T07:38:18;100002.31;;;14.42;100.00
5522;BME280;2783;48.730;8.006;2023-11-19T07:40:43;100019.25;;;14.42;100.00
5522;BME280;2783;48.730;8.006;2023-11-19T07:43:09;100016.56;;;14.42;100.00
5522;BME280;2783;48.730;8.006;2023-11-19T07:45:34;100016.47;;;14.44;100.00
5522;BME280;2783;48.730;8.006;2023-11-19T07:48:00;100022.72;;;14.44;100.00
5522;BME280;2783;48.730;8.006;2023-11-19T07:50:26;100036.09;;;14.44;100.00
5522;BME280;2783;48.730;8.006;2023-11-19T07:52:52;100029.78;;;14.45;100.00
5522;BME280;2783;48.730;8.006;2023-11-19T07:55:17;100028.91;;;14.45;100.00
5522;BME280;2783;48.730;8.006;2023-11-19T07:57:42;100018.22;;;14.45;100.00
5522;BME280;2783;48.730;8.006;2023-11-19T08:00:08;100013.81;;;14.44;100.00
5522;BME280;2783;48.730;8.006;2023-11-19T08:02:37;100025.16;;;14.49;100.00
5522;BME280;2783;48.730;8.006;2023-11-19T08:05:03;100018.69;;;14.53;100.00
5522;BME280;2783;48.730;8.006;2023-11-19T08:07:29;100030.34;;;14.52;100.00
5522;BME280;2783;48.730;8.006;2023-11-19T08:09:54;100028.63;;;14.51;100.00
5522;BME280;2783;48.730;8.006;2023-11-19T08:12:20;100025.16;;;14.49;100.00
5522;BME280;2783;48.730;8.006;2023-11-19T08:14:45;100026.88;;;14.50;100.00
5522;BME280;2783;48.730;8.006;2023-11-19T08:17:10;100032.22;;;14.50;100.00
5522;BME280;2783;48.730;8.006;2023-11-19T08:19:36;100033.91;;;14.52;100.00
5522;BME280;2783;48.730;8.006;2023-11-19T08:22:01;100040.00;;;14.56;100.00
5522;BME280;2783;48.730;8.006;2023-11-19T08:24:27;100038.00;;;14.60;100.00
5522;BME280;2783;48.730;8.006;2023-11-19T08:26:53;100054.94;;;14.60;100.00
5522;BME280;2783;48.730;8.006;2023-11-19T08:29:19;100062.91;;;14.62;100.00
5522;BME280;2783;48.730;8.006;2023-11-19T08:31:44;100051.19;;;14.64;100.00
5522;BME280;2783;48.730;8.006;2023-11-19T08:34:11;100048.50;;;14.64;100.00
5522;BME280;2783;48.730;8.006;2023-11-19T08:36:37;100054.66;;;14.66;100.00
5522;BME280;2783;48.730;8.006;2023-11-19T08:39:02;100052.00;;;14.66;100.00
5522;BME280;2783;48.730;8.006;2023-11-19T08:41:28;100052.31;;;14.77;100.00
5522;BME280;2783;48.730;8.006;2023-11-19T08:43:53;100054.84;;;14.80;100.00
5522;BME280;2783;48.730;8.006;2023-11-19T08:46:19;100059.13;;;14.84;100.00
5522;BME280;2783;48.730;8.006;2023-11-19T08:48:44;100069.97;;;14.81;100.00
5522;BME280;2783;48.730;8.006;2023-11-19T08:51:11;100075.19;;;14.84;100.00
5522;BME280;2783;48.730;8.006;2023-11-19T08:53:37;100079.59;;;14.85;100.00
5522;BME280;2783;48.730;8.006;2023-11-19T08:56:02;100076.75;;;14.88;100.00
5522;BME280;2783;48.730;8.006;2023-11-19T08:58:28;100087.31;;;14.91;100.00
5522;BME280;2783;48.730;8.006;2023-11-19T09:00:54;100086.31;;;14.94;100.00
5522;BME280;2783;48.730;8.006;2023-11-19T09:03:19;100082.75;;;14.93;100.00
5522;BME280;2783;48.730;8.006;2023-11-19T09:05:45;100080.56;;;15.01;100.00
5522;BME280;2783;48.730;8.006;2023-11-19T09:08:11;100090.22;;;15.05;100.00
5522;BME280;2783;48.730;8.006;2023-11-19T09:10:37;100086.41;;;15.09;100.00
5522;BME280;2783;48.730;8.006;2023-11-19T09:13:03;100088.00;;;15.13;100.00
5522;BME280;2783;48.730;8.006;2023-11-19T09:15:29;100091.63;;;15.12;100.00
5522;BME280;2783;48.730;8.006;2023-11-19T09:17:54;100086.06;;;15.17;100.00
5522;BME280;2783;48.730;8.006;2023-11-19T09:20:20;100086.13;;;15.15;100.00
5522;BME280;2783;48.730;8.006;2023-11-19T09:22:45;100089.72;;;15.14;100.00
5522;BME280;2783;48.730;8.006;2023-11-19T09:25:11;100089.53;;;15.19;100.00
5522;BME280;2783;48.730;8.006;2023-11-19T09:27:36;100095.81;;;15.18;100.00
5522;BME280;2783;48.730;8.006;2023-11-19T09:30:02;100087.53;;;15.22;100.00
5522;BME280;2783;48.730;8.006;2023-11-19T09:32:29;100085.13;;;15.86;100.00
5522;BME280;2783;48.730;8.006;2023-11-19T09:34:54;100093.34;;;16.16;100.00
5522;BME280;2783;48.730;8.006;2023-11-19T09:37:20;100097.91;;;16.31;100.00
5522;BME280;2783;48.730;8.006;2023-11-19T09:39:45;100097.56;;;16.37;100.00
5522;BME280;2783;48.730;8.006;2023-11-19T09:42:11;100107.53;;;16.18;100.00
5522;BME280;2783;48.730;8.006;2023-11-19T09:44:38;100093.00;;;16.06;100.00
5522;BME280;2783;48.730;8.006;2023-11-19T09:47:05;100112.22;;;16.14;100.00
5522;BME280;2783;48.730;8.006;2023-11-19T09:49:33;100096.66;;;16.21;100.00
5522;BME280;2783;48.730;8.006;2023-11-19T09:52:00;100101.59;;;16.13;100.00
5522;BME280;2783;48.730;8.006;2023-11-19T09:54:26;100102.94;;;16.04;100.00
5522;BME280;2783;48.730;8.006;2023-11-19T09:56:51;100104.75;;;16.04;100.00
5522;BME280;2783;48.730;8.006;2023-11-19T09:59:17;100095.50;;;16.09;100.00
5522;BME280;2783;48.730;8.006;2023-11-19T10:01:45;100094.38;;;16.13;100.00
5522;BME280;2783;48.730;8.006;2023-11-19T10:04:15;100093.53;;;16.13;100.00
5522;BME280;2783;48.730;8.006;2023-11-19T10:06:42;100093.53;;;16.13;100.00
5522;BME280;2783;48.730;8.006;2023-11-19T10:09:07;100078.22;;;16.47;100.00
5522;BME280;2783;48.730;8.006;2023-11-19T10:11:32;100073.69;;;16.48;100.00
5522;BME280;2783;48.730;8.006;2023-11-19T10:13:59;100079.06;;;16.48;100.00
5522;BME280;2783;48.730;8.006;2023-11-19T10:16:29;100074.19;;;16.39;100.00
5522;BME280;2783;48.730;8.006;2023-11-19T10:18:55;100058.16;;;16.37;100.00
5522;BME280;2783;48.730;8.006;2023-11-19T10:21:21;100055.38;;;16.39;100.00
5522;BME280;2783;48.730;8.006;2023-11-19T10:23:51;100063.09;;;16.45;100.00
5522;BME280;2783;48.730;8.006;2023-11-19T10:26:18;100051.41;;;17.08;100.00
5522;BME280;2783;48.730;8.006;2023-11-19T10:28:46;100048.06;;;17.64;100.00
5522;BME280;2783;48.730;8.006;2023-11-19T10:31:16;100058.72;;;17.79;100.00
5522;BME280;2783;48.730;8.006;2023-11-19T10:33:42;100059.00;;;17.61;100.00
5522;BME280;2783;48.730;8.006;2023-11-19T10:36:14;100059.19;;;17.42;100.00
5522;BME280;2783;48.730;8.006;2023-11-19T10:38:40;100046.25;;;17.19;100.00
5522;BME280;2783;48.730;8.006;2023-11-19T10:41:06;100046.97;;;17.07;100.00
5522;BME280;2783;48.730;8.006;2023-11-19T10:43:42;100053.69;;;17.00;100.00
5522;BME280;2783;48.730;8.006;2023-11-19T10:46:11;100052.16;;;17.10;100.00
5522;BME280;2783;48.730;8.006;2023-11-19T10:48:37;100049.25;;;18.02;100.00
5522;BME280;2783;48.730;8.006;2023-11-19T10:51:07;100044.91;;;18.56;100.00
5522;BME280;2783;48.730;8.006;2023-11-19T10:53:43;100047.94;;;19.31;97.56
5522;BME280;2783;48.730;8.006;2023-11-19T10:56:11;100047.34;;;19.26;92.40
5522;BME280;2783;48.730;8.006;2023-11-19T10:58:37;100040.44;;;18.83;91.86
5522;BME280;2783;48.730;8.006;2023-11-19T11:01:20;100037.34;;;18.75;94.59
5522;BME280;2783;48.730;8.006;2023-11-19T11:03:50;100021.00;;;19.04;94.15
5522;BME280;2783;48.730;8.006;2023-11-19T11:06:17;100029.84;;;19.33;93.14
5522;BME280;2783;48.730;8.006;2023-11-19T11:08:44;100019.41;;;20.41;92.05
5522;BME280;2783;48.730;8.006;2023-11-19T11:11:13;100011.38;;;21.12;84.58
5522;BME280;2783;48.730;8.006;2023-11-19T11:13:42;100017.97;;;21.32;78.73
5522;BME280;2783;48.730;8.006;2023-11-19T11:16:08;100020.63;;;21.21;79.37
5522;BME280;2783;48.730;8.006;2023-11-19T11:18:33;100022.72;;;20.93;80.13
5522;BME280;2783;48.730;8.006;2023-11-19T11:31:53;100022.34;;;19.24;89.87
5522;BME280;2783;48.730;8.006;2023-11-19T11:34:44;100029.16;;;19.03;89.59
5522;BME280;2783;48.730;8.006;2023-11-19T11:37:37;100015.59;;;18.78;90.79
5522;BME280;2783;48.730;8.006;2023-11-19T11:40:05;100021.75;;;18.80;91.49
5522;BME280;2783;48.730;8.006;2023-11-19T11:42:38;100026.47;;;19.03;93.15
5522;BME280;2783;48.730;8.006;2023-11-19T11:45:05;100016.19;;;20.11;91.32
5522;BME280;2783;48.730;8.006;2023-11-19T11:57:53;100013.56;;;21.07;79.92
5522;BME280;2783;48.730;8.006;2023-11-19T12:00:33;99990.97;;;21.88;73.95
5522;BME280;2783;48.730;8.006;2023-11-19T12:03:04;99993.03;;;21.96;72.78
5522;BME280;2783;48.730;8.006;2023-11-19T12:05:30;100004.91;;;21.26;73.13
5522;BME280;2783;48.730;8.006;2023-11-19T12:08:05;99990.69;;;21.35;74.70
5522;BME280;2783;48.730;8.006;2023-11-19T12:10:49;99975.28;;;21.01;72.66
5522;BME280;2783;48.730;8.006;2023-11-19T12:13:15;99978.41;;;21.07;74.24
5522;BME280;2783;48.730;8.006;2023-11-19T12:18:31;99972.69;;;20.52;72.94
5522;BME280;2783;48.730;8.006;2023-11-19T12:20:58;99974.84;;;20.47;75.35
5522;BME280;2783;48.730;8.006;2023-11-19T12:23:30;99979.38;;;20.23;72.26
5522;BME280;2783;48.730;8.006;2023-11-19T12:25:58;99970.16;;;20.13;75.12
5522;BME280;2783;48.730;8.006;2023-11-19T12:28:24;99964.22;;;20.56;71.46
5522;BME280;2783;48.730;8.006;2023-11-19T12:30:52;99966.66;;;21.19;66.52
5522;BME280;2783;48.730;8.006;2023-11-19T12:33:18;99964.78;;;21.54;63.85
5522;BME280;2783;48.730;8.006;2023-11-19T12:35:46;99960.47;;;21.17;63.53
5522;BME280;2783;48.730;8.006;2023-11-19T12:38:25;99963.78;;;20.62;65.89
5522;BME280;2783;48.730;8.006;2023-11-19T12:43:29;99963.28;;;19.71;67.35
5522;BME280;2783;48.730;8.006;2023-11-19T12:45:54;99964.47;;;19.42;69.31
5522;BME280;2783;48.730;8.006;2023-11-19T12:48:20;99958.28;;;19.27;69.77
5522;BME280;2783;48.730;8.006;2023-11-19T12:50:55;99954.78;;;19.13;70.18
5522;BME280;2783;48.730;8.006;2023-11-19T12:53:26;99972.19;;;18.95;69.75
5522;BME280;2783;48.730;8.006;2023-11-19T12:55:54;99961.50;;;18.81;71.15
5522;BME280;2783;48.730;8.006;2023-11-19T12:58:34;99958.09;;;18.65;69.75
5522;BME280;2783;48.730;8.006;2023-11-19T13:01:02;99951.09;;;18.75;71.42
5522;BME280;2783;48.730;8.006;2023-11-19T13:03:35;99956.50;;;18.75;70.29
5522;BME280;2783;48.730;8.006;2023-11-19T13:06:09;99949.75;;;18.82;72.26
5522;BME280;2783;48.730;8.006;2023-11-19T13:08:46;99944.25;;;18.83;71.24
5522;BME280;2783;48.730;8.006;2023-11-19T13:11:14;99943.03;;;18.75;70.70
5522;BME280;2783;48.730;8.006;2023-11-19T13:14:01;99941.53;;;18.71;70.45
5522;BME280;2783;48.730;8.006;2023-11-19T13:16:28;99938.94;;;18.69;71.86
5522;BME280;2783;48.730;8.006;2023-11-19T13:18:54;99942.28;;;18.46;71.68
5522;BME280;2783;48.730;8.006;2023-11-19T13:21:19;99934.50;;;18.42;74.45
5522;BME280;2783;48.730;8.006;2023-11-19T13:23:45;99926.00;;;18.33;72.25
5522;BME280;2783;48.730;8.006;2023-11-19T13:26:11;99932.88;;;18.39;72.48
5522;BME280;2783;48.730;8.006;2023-11-19T13:28:37;99920.94;;;18.43;73.03
5522;BME280;2783;48.730;8.006;2023-11-19T13:31:02;99937.00;;;18.45;72.98